sensor_id;sensor_type;location;lat;lon;timestamp;temperature;humidity
53978;DHT22;39886;47.984;-1.586;2023-09-12T00:01:25;25.40;72.30
53978;DHT22;39886;47.984;-1.586;2023-09-12T00:03:51;25.40;72.30
53978;DHT22;39886;47.984;-1.586;2023-09-12T00:06:17;25.40;72.30
53978;DHT22;39886;47.984;-1.586;2023-09-12T00:08:42;25.40;72.30
53978;DHT22;39886;47.984;-1.586;2023-09-12T00:11:09;25.40;72.30
53978;DHT22;39886;47.984;-1.586;2023-09-12T00:13:37;25.40;72.50
53978;DHT22;39886;47.984;-1.586;2023-09-12T00:16:03;25.40;72.40
53978;DHT22;39886;47.984;-1.586;2023-09-12T00:18:30;25.40;72.40
53978;DHT22;39886;47.984;-1.586;2023-09-12T00:20:56;25.40;72.40
53978;DHT22;39886;47.984;-1.586;2023-09-12T00:23:22;25.30;72.40
53978;DHT22;39886;47.984;-1.586;2023-09-12T00:25:52;25.30;72.40
53978;DHT22;39886;47.984;-1.586;2023-09-12T00:28:21;25.30;72.40
53978;DHT22;39886;47.984;-1.586;2023-09-12T00:30:47;25.30;72.30
53978;DHT22;39886;47.984;-1.586;2023-09-12T00:33:13;25.30;72.40
53978;DHT22;39886;47.984;-1.586;2023-09-12T00:35:38;25.30;72.40
53978;DHT22;39886;47.984;-1.586;2023-09-12T00:38:04;25.40;72.40
53978;DHT22;39886;47.984;-1.586;2023-09-12T00:40:31;25.30;72.40
53978;DHT22;39886;47.984;-1.586;2023-09-12T00:42:58;25.30;72.40
53978;DHT22;39886;47.984;-1.586;2023-09-12T00:45:25;25.30;72.40
53978;DHT22;39886;47.984;-1.586;2023-09-12T00:47:51;25.30;72.40
53978;DHT22;39886;47.984;-1.586;2023-09-12T00:50:20;25.30;72.50
53978;DHT22;39886;47.984;-1.586;2023-09-12T00:52:47;25.30;72.50
53978;DHT22;39886;47.984;-1.586;2023-09-12T00:55:13;25.30;72.40
53978;DHT22;39886;47.984;-1.586;2023-09-12T00:57:39;25.30;72.50
53978;DHT22;39886;47.984;-1.586;2023-09-12T01:00:07;25.30;72.50
53978;DHT22;39886;47.984;-1.586;2023-09-12T01:02:41;25.30;72.50
53978;DHT22;39886;47.984;-1.586;2023-09-12T01:05:08;25.30;72.50
53978;DHT22;39886;47.984;-1.586;2023-09-12T01:07:35;25.30;72.50
53978;DHT22;39886;47.984;-1.586;2023-09-12T01:10:01;25.30;72.50
53978;DHT22;39886;47.984;-1.586;2023-09-12T01:12:29;25.30;72.50
53978;DHT22;39886;47.984;-1.586;2023-09-12T01:14:55;25.30;72.50
53978;DHT22;39886;47.984;-1.586;2023-09-12T01:17:21;25.30;72.50
53978;DHT22;39886;47.984;-1.586;2023-09-12T01:19:48;25.20;72.50
53978;DHT22;39886;47.984;-1.586;2023-09-12T01:25:08;25.20;72.50
53978;DHT22;39886;47.984;-1.586;2023-09-12T01:27:38;25.20;72.50
53978;DHT22;39886;47.984;-1.586;2023-09-12T01:30:07;25.20;72.50
53978;DHT22;39886;47.984;-1.586;2023-09-12T01:32:34;25.20;72.50
53978;DHT22;39886;47.984;-1.586;2023-09-12T01:35:01;25.20;72.50
53978;DHT22;39886;47.984;-1.586;2023-09-12T01:37:30;25.20;72.60
53978;DHT22;39886;47.984;-1.586;2023-09-12T01:39:56;25.20;72.60
53978;DHT22;39886;47.984;-1.586;2023-09-12T01:42:22;25.20;72.60
53978;DHT22;39886;47.984;-1.586;2023-09-12T01:44:51;25.20;72.60
53978;DHT22;39886;47.984;-1.586;2023-09-12T01:47:21;25.20;72.60
53978;DHT22;39886;47.984;-1.586;2023-09-12T01:49:51;25.20;72.60
53978;DHT22;39886;47.984;-1.586;2023-09-12T01:52:18;25.20;72.60
53978;DHT22;39886;47.984;-1.586;2023-09-12T01:54:44;25.20;72.60
53978;DHT22;39886;47.984;-1.586;2023-09-12T01:57:10;25.20;72.60
53978;DHT22;39886;47.984;-1.586;2023-09-12T01:59:36;25.20;72.60
53978;DHT22;39886;47.984;-1.586;2023-09-12T02:02:02;25.20;72.60
53978;DHT22;39886;47.984;-1.586;2023-09-12T02:04:28;25.20;72.60
53978;DHT22;39886;47.984;-1.586;2023-09-12T02:06:54;25.10;72.50
53978;DHT22;39886;47.984;-1.586;2023-09-12T02:09:20;25.20;72.60
53978;DHT22;39886;47.984;-1.586;2023-09-12T02:11:47;25.10;72.50
53978;DHT22;39886;47.984;-1.586;2023-09-12T02:14:13;25.10;72.60
53978;DHT22;39886;47.984;-1.586;2023-09-12T02:16:38;25.10;72.60
53978;DHT22;39886;47.984;-1.586;2023-09-12T02:19:05;25.10;72.60
53978;DHT22;39886;47.984;-1.586;2023-09-12T02:21:31;25.10;72.60
53978;DHT22;39886;47.984;-1.586;2023-09-12T02:23:57;25.10;72.60
53978;DHT22;39886;47.984;-1.586;2023-09-12T02:26:22;25.10;72.60
53978;DHT22;39886;47.984;-1.586;2023-09-12T02:28:48;25.10;72.60
53978;DHT22;39886;47.984;-1.586;2023-09-12T02:31:14;25.10;72.70
53978;DHT22;39886;47.984;-1.586;2023-09-12T02:33:40;25.10;72.60
53978;DHT22;39886;47.984;-1.586;2023-09-12T02:36:06;25.10;72.70
53978;DHT22;39886;47.984;-1.586;2023-09-12T02:38:32;25.10;72.70
53978;DHT22;39886;47.984;-1.586;2023-09-12T02:40:58;25.10;72.70
53978;DHT22;39886;47.984;-1.586;2023-09-12T02:43:24;25.10;72.70
53978;DHT22;39886;47.984;-1.586;2023-09-12T02:45:49;25.10;72.70
53978;DHT22;39886;47.984;-1.586;2023-09-12T02:48:15;25.10;72.70
53978;DHT22;39886;47.984;-1.586;2023-09-12T02:50:41;25.10;72.70
53978;DHT22;39886;47.984;-1.586;2023-09-12T02:53:07;25.10;72.70
53978;DHT22;39886;47.984;-1.586;2023-09-12T02:55:33;25.10;72.70
53978;DHT22;39886;47.984;-1.586;2023-09-12T02:57:58;25.10;72.70
53978;DHT22;39886;47.984;-1.586;2023-09-12T03:00:24;25.10;72.70
53978;DHT22;39886;47.984;-1.586;2023-09-12T03:03:08;25.10;72.70
53978;DHT22;39886;47.984;-1.586;2023-09-12T03:05:35;25.00;72.60
53978;DHT22;39886;47.984;-1.586;2023-09-12T03:08:01;25.00;72.60
53978;DHT22;39886;47.984;-1.586;2023-09-12T03:10:28;25.10;72.70
53978;DHT22;39886;47.984;-1.586;2023-09-12T03:12:54;25.00;73.30
53978;DHT22;39886;47.984;-1.586;2023-09-12T03:15:19;25.10;72.70
53978;DHT22;39886;47.984;-1.586;2023-09-12T03:17:45;25.10;72.60
53978;DHT22;39886;47.984;-1.586;2023-09-12T03:20:11;25.00;72.60
53978;DHT22;39886;47.984;-1.586;2023-09-12T03:22:37;25.00;72.60
53978;DHT22;39886;47.984;-1.586;2023-09-12T03:25:06;25.00;72.60
53978;DHT22;39886;47.984;-1.586;2023-09-12T03:27:32;25.00;72.60
53978;DHT22;39886;47.984;-1.586;2023-09-12T03:29:58;25.00;72.60
53978;DHT22;39886;47.984;-1.586;2023-09-12T03:32:24;25.10;72.60
53978;DHT22;39886;47.984;-1.586;2023-09-12T03:34:50;25.10;72.60
53978;DHT22;39886;47.984;-1.586;2023-09-12T03:37:15;25.00;72.60
53978;DHT22;39886;47.984;-1.586;2023-09-12T03:39:41;25.00;72.60
53978;DHT22;39886;47.984;-1.586;2023-09-12T03:42:07;25.00;72.50
53978;DHT22;39886;47.984;-1.586;2023-09-12T03:44:32;25.00;72.50
53978;DHT22;39886;47.984;-1.586;2023-09-12T03:46:58;25.00;72.50
53978;DHT22;39886;47.984;-1.586;2023-09-12T03:49:24;25.00;72.60
53978;DHT22;39886;47.984;-1.586;2023-09-12T03:51:50;25.00;72.60
53978;DHT22;39886;47.984;-1.586;2023-09-12T03:54:16;25.00;72.60
53978;DHT22;39886;47.984;-1.586;2023-09-12T03:56:41;25.00;72.60
53978;DHT22;39886;47.984;-1.586;2023-09-12T03:59:07;25.00;72.60
53978;DHT22;39886;47.984;-1.586;2023-09-12T04:01:33;25.00;72.60
53978;DHT22;39886;47.984;-1.586;2023-09-12T04:03:58;25.00;72.60
53978;DHT22;39886;47.984;-1.586;2023-09-12T04:06:24;25.00;72.50
53978;DHT22;39886;47.984;-1.586;2023-09-12T04:08:50;25.00;72.50
53978;DHT22;39886;47.984;-1.586;2023-09-12T04:11:16;25.00;72.60
53978;DHT22;39886;47.984;-1.586;2023-09-12T04:13:41;25.00;72.50
53978;DHT22;39886;47.984;-1.586;2023-09-12T04:16:07;25.00;72.50
53978;DHT22;39886;47.984;-1.586;2023-09-12T04:18:33;25.00;72.50
53978;DHT22;39886;47.984;-1.586;2023-09-12T04:20:58;25.00;72.60
53978;DHT22;39886;47.984;-1.586;2023-09-12T04:23:25;25.00;72.60
53978;DHT22;39886;47.984;-1.586;2023-09-12T04:25:51;25.00;72.60
53978;DHT22;39886;47.984;-1.586;2023-09-12T04:28:16;25.00;72.60
53978;DHT22;39886;47.984;-1.586;2023-09-12T04:30:42;25.00;72.60
53978;DHT22;39886;47.984;-1.586;2023-09-12T04:33:08;25.00;72.60
53978;DHT22;39886;47.984;-1.586;2023-09-12T04:35:34;25.00;72.60
53978;DHT22;39886;47.984;-1.586;2023-09-12T04:38:00;25.00;72.50
53978;DHT22;39886;47.984;-1.586;2023-09-12T04:40:26;25.00;72.50
53978;DHT22;39886;47.984;-1.586;2023-09-12T04:42:53;25.00;72.50
53978;DHT22;39886;47.984;-1.586;2023-09-12T04:45:18;25.00;73.20
53978;DHT22;39886;47.984;-1.586;2023-09-12T04:47:44;25.00;72.50
53978;DHT22;39886;47.984;-1.586;2023-09-12T04:50:10;25.00;72.50
53978;DHT22;39886;47.984;-1.586;2023-09-12T04:52:37;25.00;72.50
53978;DHT22;39886;47.984;-1.586;2023-09-12T04:55:03;25.00;72.60
53978;DHT22;39886;47.984;-1.586;2023-09-12T04:57:30;25.00;72.50
53978;DHT22;39886;47.984;-1.586;2023-09-12T04:59:56;25.00;72.60
53978;DHT22;39886;47.984;-1.586;2023-09-12T05:02:24;25.00;72.60
53978;DHT22;39886;47.984;-1.586;2023-09-12T05:04:51;25.00;72.60
53978;DHT22;39886;47.984;-1.586;2023-09-12T05:07:16;25.00;72.60
53978;DHT22;39886;47.984;-1.586;2023-09-12T05:09:42;25.00;72.60
53978;DHT22;39886;47.984;-1.586;2023-09-12T05:12:08;25.00;72.60
53978;DHT22;39886;47.984;-1.586;2023-09-12T05:14:33;25.00;72.50
53978;DHT22;39886;47.984;-1.586;2023-09-12T05:16:59;25.00;72.60
53978;DHT22;39886;47.984;-1.586;2023-09-12T05:19:27;25.00;72.60
53978;DHT22;39886;47.984;-1.586;2023-09-12T05:21:52;25.00;72.50
53978;DHT22;39886;47.984;-1.586;2023-09-12T05:24:18;25.00;72.50
53978;DHT22;39886;47.984;-1.586;2023-09-12T05:26:44;25.00;72.60
53978;DHT22;39886;47.984;-1.586;2023-09-12T05:29:10;25.00;72.60
53978;DHT22;39886;47.984;-1.586;2023-09-12T05:31:35;25.00;72.60
53978;DHT22;39886;47.984;-1.586;2023-09-12T05:34:01;24.90;72.50
53978;DHT22;39886;47.984;-1.586;2023-09-12T05:36:27;24.90;72.50
53978;DHT22;39886;47.984;-1.586;2023-09-12T05:38:53;24.90;72.60
53978;DHT22;39886;47.984;-1.586;2023-09-12T05:41:18;24.90;72.50
53978;DHT22;39886;47.984;-1.586;2023-09-12T05:43:44;24.90;72.60
53978;DHT22;39886;47.984;-1.586;2023-09-12T05:46:10;24.90;72.50
53978;DHT22;39886;47.984;-1.586;2023-09-12T05:48:35;24.90;72.60
53978;DHT22;39886;47.984;-1.586;2023-09-12T05:51:01;24.90;72.60
53978;DHT22;39886;47.984;-1.586;2023-09-12T05:53:27;24.90;72.60
53978;DHT22;39886;47.984;-1.586;2023-09-12T05:55:53;24.90;72.60
53978;DHT22;39886;47.984;-1.586;2023-09-12T05:58:19;24.90;72.50
53978;DHT22;39886;47.984;-1.586;2023-09-12T06:00:45;24.90;73.20
53978;DHT22;39886;47.984;-1.586;2023-09-12T06:03:14;24.90;72.50
53978;DHT22;39886;47.984;-1.586;2023-09-12T06:05:40;24.90;72.60
53978;DHT22;39886;47.984;-1.586;2023-09-12T06:08:06;24.90;72.60
53978;DHT22;39886;47.984;-1.586;2023-09-12T06:10:32;24.90;72.50
53978;DHT22;39886;47.984;-1.586;2023-09-12T06:12:59;24.90;72.50
53978;DHT22;39886;47.984;-1.586;2023-09-12T06:15:25;24.90;72.50
53978;DHT22;39886;47.984;-1.586;2023-09-12T06:17:50;24.90;72.50
53978;DHT22;39886;47.984;-1.586;2023-09-12T06:20:16;24.90;72.50
53978;DHT22;39886;47.984;-1.586;2023-09-12T06:22:42;24.90;72.50
53978;DHT22;39886;47.984;-1.586;2023-09-12T06:25:09;24.90;72.30
53978;DHT22;39886;47.984;-1.586;2023-09-12T06:27:34;24.90;72.30
53978;DHT22;39886;47.984;-1.586;2023-09-12T06:30:00;25.00;71.80
53978;DHT22;39886;47.984;-1.586;2023-09-12T06:32:26;24.90;71.90
53978;DHT22;39886;47.984;-1.586;2023-09-12T06:34:52;25.00;72.00
53978;DHT22;39886;47.984;-1.586;2023-09-12T06:37:18;24.90;71.90
53978;DHT22;39886;47.984;-1.586;2023-09-12T06:39:44;25.00;71.90
53978;DHT22;39886;47.984;-1.586;2023-09-12T06:42:09;25.00;72.00
53978;DHT22;39886;47.984;-1.586;2023-09-12T06:44:35;25.00;71.90
53978;DHT22;39886;47.984;-1.586;2023-09-12T06:47:03;25.00;71.90
53978;DHT22;39886;47.984;-1.586;2023-09-12T06:49:29;25.00;71.90
53978;DHT22;39886;47.984;-1.586;2023-09-12T06:51:57;25.00;72.00
53978;DHT22;39886;47.984;-1.586;2023-09-12T06:54:23;25.00;71.90
53978;DHT22;39886;47.984;-1.586;2023-09-12T06:56:48;25.00;71.80
53978;DHT22;39886;47.984;-1.586;2023-09-12T06:59:14;25.00;71.80
53978;DHT22;39886;47.984;-1.586;2023-09-12T07:01:42;25.00;71.80
53978;DHT22;39886;47.984;-1.586;2023-09-12T07:04:10;25.00;71.80
53978;DHT22;39886;47.984;-1.586;2023-09-12T07:06:36;25.10;71.70
53978;DHT22;39886;47.984;-1.586;2023-09-12T07:09:01;25.10;71.60
53978;DHT22;39886;47.984;-1.586;2023-09-12T07:11:28;25.20;71.50
53978;DHT22;39886;47.984;-1.586;2023-09-12T07:13:54;25.20;71.50
53978;DHT22;39886;47.984;-1.586;2023-09-12T07:16:20;25.30;71.50
53978;DHT22;39886;47.984;-1.586;2023-09-12T07:18:47;25.30;71.60
53978;DHT22;39886;47.984;-1.586;2023-09-12T07:21:13;25.30;71.70
53978;DHT22;39886;47.984;-1.586;2023-09-12T07:23:38;25.30;70.80
53978;DHT22;39886;47.984;-1.586;2023-09-12T07:26:04;25.40;71.10
53978;DHT22;39886;47.984;-1.586;2023-09-12T07:28:30;25.40;73.00
53978;DHT22;39886;47.984;-1.586;2023-09-12T07:30:57;25.40;70.90
53978;DHT22;39886;47.984;-1.586;2023-09-12T07:33:23;25.40;71.50
53978;DHT22;39886;47.984;-1.586;2023-09-12T07:35:51;25.40;71.70
53978;DHT22;39886;47.984;-1.586;2023-09-12T07:38:17;25.50;70.90
53978;DHT22;39886;47.984;-1.586;2023-09-12T07:40:43;25.40;70.80
53978;DHT22;39886;47.984;-1.586;2023-09-12T07:43:09;25.50;71.40
53978;DHT22;39886;47.984;-1.586;2023-09-12T07:45:35;25.50;70.70
53978;DHT22;39886;47.984;-1.586;2023-09-12T07:48:07;25.50;69.60
53978;DHT22;39886;47.984;-1.586;2023-09-12T07:50:34;25.50;70.10
53978;DHT22;39886;47.984;-1.586;2023-09-12T07:53:00;25.50;69.60
53978;DHT22;39886;47.984;-1.586;2023-09-12T07:55:26;25.50;69.50
53978;DHT22;39886;47.984;-1.586;2023-09-12T07:57:55;25.50;69.50
53978;DHT22;39886;47.984;-1.586;2023-09-12T08:00:21;25.50;69.40
53978;DHT22;39886;47.984;-1.586;2023-09-12T08:02:47;25.50;69.30
53978;DHT22;39886;47.984;-1.586;2023-09-12T08:05:13;25.50;69.70
53978;DHT22;39886;47.984;-1.586;2023-09-12T08:07:38;25.50;69.30
53978;DHT22;39886;47.984;-1.586;2023-09-12T08:10:04;25.50;69.30
53978;DHT22;39886;47.984;-1.586;2023-09-12T08:12:30;25.50;69.50
53978;DHT22;39886;47.984;-1.586;2023-09-12T08:14:56;25.50;69.90
53978;DHT22;39886;47.984;-1.586;2023-09-12T08:17:23;25.40;69.50
53978;DHT22;39886;47.984;-1.586;2023-09-12T08:19:49;25.40;69.40
53978;DHT22;39886;47.984;-1.586;2023-09-12T08:22:14;25.40;69.30
53978;DHT22;39886;47.984;-1.586;2023-09-12T08:24:40;25.50;69.40
53978;DHT22;39886;47.984;-1.586;2023-09-12T08:27:07;25.50;69.40
53978;DHT22;39886;47.984;-1.586;2023-09-12T08:29:33;25.40;69.60
53978;DHT22;39886;47.984;-1.586;2023-09-12T08:32:00;25.40;69.50
53978;DHT22;39886;47.984;-1.586;2023-09-12T08:34:26;25.50;69.30
53978;DHT22;39886;47.984;-1.586;2023-09-12T08:36:52;25.50;69.40
53978;DHT22;39886;47.984;-1.586;2023-09-12T08:39:25;25.40;70.20
53978;DHT22;39886;47.984;-1.586;2023-09-12T08:41:51;25.50;69.30
53978;DHT22;39886;47.984;-1.586;2023-09-12T08:44:18;25.50;69.60
53978;DHT22;39886;47.984;-1.586;2023-09-12T08:46:44;25.50;69.50
53978;DHT22;39886;47.984;-1.586;2023-09-12T08:49:10;25.40;70.00
53978;DHT22;39886;47.984;-1.586;2023-09-12T08:51:40;25.50;69.70
53978;DHT22;39886;47.984;-1.586;2023-09-12T08:54:07;25.40;69.60
53978;DHT22;39886;47.984;-1.586;2023-09-12T08:56:35;25.50;69.80
53978;DHT22;39886;47.984;-1.586;2023-09-12T08:59:01;25.50;69.40
53978;DHT22;39886;47.984;-1.586;2023-09-12T09:01:30;25.50;69.40
53978;DHT22;39886;47.984;-1.586;2023-09-12T09:03:57;25.50;69.10
53978;DHT22;39886;47.984;-1.586;2023-09-12T09:06:23;25.60;69.40
53978;DHT22;39886;47.984;-1.586;2023-09-12T09:08:49;25.60;69.30
53978;DHT22;39886;47.984;-1.586;2023-09-12T09:11:16;25.50;69.10
53978;DHT22;39886;47.984;-1.586;2023-09-12T09:13:42;25.50;68.90
53978;DHT22;39886;47.984;-1.586;2023-09-12T09:16:18;25.50;68.90
53978;DHT22;39886;47.984;-1.586;2023-09-12T09:18:56;25.50;69.20
53978;DHT22;39886;47.984;-1.586;2023-09-12T09:21:25;25.50;69.00
53978;DHT22;39886;47.984;-1.586;2023-09-12T09:23:52;25.50;68.90
53978;DHT22;39886;47.984;-1.586;2023-09-12T09:26:19;25.50;68.80
53978;DHT22;39886;47.984;-1.586;2023-09-12T09:28:45;25.50;68.50
53978;DHT22;39886;47.984;-1.586;2023-09-12T09:31:13;25.50;68.30
53978;DHT22;39886;47.984;-1.586;2023-09-12T09:33:42;25.60;68.80
53978;DHT22;39886;47.984;-1.586;2023-09-12T09:36:16;25.60;68.10
53978;DHT22;39886;47.984;-1.586;2023-09-12T09:38:43;25.60;68.10
53978;DHT22;39886;47.984;-1.586;2023-09-12T09:41:09;25.60;67.90
53978;DHT22;39886;47.984;-1.586;2023-09-12T09:43:35;25.60;67.90
53978;DHT22;39886;47.984;-1.586;2023-09-12T09:46:02;25.60;67.70
53978;DHT22;39886;47.984;-1.586;2023-09-12T09:48:28;25.60;67.70
53978;DHT22;39886;47.984;-1.586;2023-09-12T09:51:01;25.60;67.90
53978;DHT22;39886;47.984;-1.586;2023-09-12T09:53:31;25.60;67.50
53978;DHT22;39886;47.984;-1.586;2023-09-12T09:56:13;25.40;67.80
53978;DHT22;39886;47.984;-1.586;2023-09-12T09:58:53;25.50;67.90
53978;DHT22;39886;47.984;-1.586;2023-09-12T10:01:27;25.60;67.80
53978;DHT22;39886;47.984;-1.586;2023-09-12T10:03:59;25.60;67.80
53978;DHT22;39886;47.984;-1.586;2023-09-12T10:06:26;25.60;68.40
53978;DHT22;39886;47.984;-1.586;2023-09-12T10:08:53;25.60;67.30
53978;DHT22;39886;47.984;-1.586;2023-09-12T10:11:24;25.60;67.10
53978;DHT22;39886;47.984;-1.586;2023-09-12T10:13:53;25.60;67.30
53978;DHT22;39886;47.984;-1.586;2023-09-12T10:16:32;25.60;67.50
53978;DHT22;39886;47.984;-1.586;2023-09-12T10:19:07;25.60;67.50
53978;DHT22;39886;47.984;-1.586;2023-09-12T10:21:36;25.70;67.50
53978;DHT22;39886;47.984;-1.586;2023-09-12T10:24:07;25.70;67.40
53978;DHT22;39886;47.984;-1.586;2023-09-12T10:26:34;25.70;67.40
53978;DHT22;39886;47.984;-1.586;2023-09-12T10:29:00;25.70;67.40
53978;DHT22;39886;47.984;-1.586;2023-09-12T10:31:28;25.70;67.20
53978;DHT22;39886;47.984;-1.586;2023-09-12T10:33:54;25.80;67.20
53978;DHT22;39886;47.984;-1.586;2023-09-12T10:36:20;25.70;67.30
53978;DHT22;39886;47.984;-1.586;2023-09-12T10:38:48;25.70;67.40
53978;DHT22;39886;47.984;-1.586;2023-09-12T10:41:15;25.70;67.40
53978;DHT22;39886;47.984;-1.586;2023-09-12T10:43:42;25.70;67.30
53978;DHT22;39886;47.984;-1.586;2023-09-12T10:46:09;25.70;67.30
53978;DHT22;39886;47.984;-1.586;2023-09-12T10:48:38;25.70;67.00
53978;DHT22;39886;47.984;-1.586;2023-09-12T10:51:06;25.60;67.10
53978;DHT22;39886;47.984;-1.586;2023-09-12T10:53:33;25.70;67.10
53978;DHT22;39886;47.984;-1.586;2023-09-12T10:56:15;25.70;67.20
53978;DHT22;39886;47.984;-1.586;2023-09-12T11:01:33;25.70;66.70
53978;DHT22;39886;47.984;-1.586;2023-09-12T11:06:49;25.70;66.60
53978;DHT22;39886;47.984;-1.586;2023-09-12T11:11:46;25.70;66.70
53978;DHT22;39886;47.984;-1.586;2023-09-12T11:14:13;25.70;66.60
53978;DHT22;39886;47.984;-1.586;2023-09-12T11:16:38;25.70;66.60
53978;DHT22;39886;47.984;-1.586;2023-09-12T11:19:18;25.80;66.60
53978;DHT22;39886;47.984;-1.586;2023-09-12T11:21:54;25.80;66.50
53978;DHT22;39886;47.984;-1.586;2023-09-12T11:24:21;25.80;66.50
53978;DHT22;39886;47.984;-1.586;2023-09-12T11:26:54;25.80;66.50
53978;DHT22;39886;47.984;-1.586;2023-09-12T11:29:20;25.80;66.50
53978;DHT22;39886;47.984;-1.586;2023-09-12T11:31:54;25.80;67.20
53978;DHT22;39886;47.984;-1.586;2023-09-12T11:34:26;25.80;65.90
53978;DHT22;39886;47.984;-1.586;2023-09-12T11:36:56;25.80;66.10
53978;DHT22;39886;47.984;-1.586;2023-09-12T11:39:29;25.80;66.20
53978;DHT22;39886;47.984;-1.586;2023-09-12T11:41:59;25.90;66.30
53978;DHT22;39886;47.984;-1.586;2023-09-12T11:44:25;25.90;66.20
53978;DHT22;39886;47.984;-1.586;2023-09-12T11:46:52;26.00;66.30
53978;DHT22;39886;47.984;-1.586;2023-09-12T11:49:18;26.00;66.20
53978;DHT22;39886;47.984;-1.586;2023-09-12T11:51:52;26.00;66.30
53978;DHT22;39886;47.984;-1.586;2023-09-12T11:54:21;26.00;66.20
53978;DHT22;39886;47.984;-1.586;2023-09-12T11:56:50;26.10;66.20
53978;DHT22;39886;47.984;-1.586;2023-09-12T11:59:22;26.10;66.20
53978;DHT22;39886;47.984;-1.586;2023-09-12T12:01:48;26.10;66.10
53978;DHT22;39886;47.984;-1.586;2023-09-12T12:04:15;26.10;66.10
53978;DHT22;39886;47.984;-1.586;2023-09-12T12:06:41;26.20;66.10
53978;DHT22;39886;47.984;-1.586;2023-09-12T12:09:09;26.20;65.90
53978;DHT22;39886;47.984;-1.586;2023-09-12T12:11:35;26.20;65.80
53978;DHT22;39886;47.984;-1.586;2023-09-12T12:14:12;26.20;65.40
53978;DHT22;39886;47.984;-1.586;2023-09-12T12:16:39;26.30;65.60
53978;DHT22;39886;47.984;-1.586;2023-09-12T12:19:05;26.30;65.50
53978;DHT22;39886;47.984;-1.586;2023-09-12T12:21:30;26.30;65.30
53978;DHT22;39886;47.984;-1.586;2023-09-12T12:24:01;26.30;65.60
53978;DHT22;39886;47.984;-1.586;2023-09-12T12:26:27;26.40;65.50
53978;DHT22;39886;47.984;-1.586;2023-09-12T12:28:53;26.40;65.30
53978;DHT22;39886;47.984;-1.586;2023-09-12T12:31:19;26.30;65.30
53978;DHT22;39886;47.984;-1.586;2023-09-12T12:33:49;26.40;64.90
53978;DHT22;39886;47.984;-1.586;2023-09-12T12:36:15;26.40;65.10
53978;DHT22;39886;47.984;-1.586;2023-09-12T12:38:40;26.40;65.20
53978;DHT22;39886;47.984;-1.586;2023-09-12T12:41:09;26.40;65.10
53978;DHT22;39886;47.984;-1.586;2023-09-12T12:43:35;26.40;65.00
53978;DHT22;39886;47.984;-1.586;2023-09-12T12:46:01;26.50;65.00
53978;DHT22;39886;47.984;-1.586;2023-09-12T12:48:32;26.40;64.80
53978;DHT22;39886;47.984;-1.586;2023-09-12T12:50:58;26.50;65.00
53978;DHT22;39886;47.984;-1.586;2023-09-12T12:53:46;26.50;65.00
53978;DHT22;39886;47.984;-1.586;2023-09-12T12:56:17;26.50;64.90
53978;DHT22;39886;47.984;-1.586;2023-09-12T12:58:51;26.40;64.60
53978;DHT22;39886;47.984;-1.586;2023-09-12T13:01:18;26.40;64.50
53978;DHT22;39886;47.984;-1.586;2023-09-12T13:03:44;26.50;64.80
53978;DHT22;39886;47.984;-1.586;2023-09-12T13:06:11;26.50;64.50
53978;DHT22;39886;47.984;-1.586;2023-09-12T13:08:44;26.50;64.20
53978;DHT22;39886;47.984;-1.586;2023-09-12T13:11:12;26.50;64.40
53978;DHT22;39886;47.984;-1.586;2023-09-12T13:13:39;26.60;64.20
53978;DHT22;39886;47.984;-1.586;2023-09-12T13:16:06;26.60;64.10
53978;DHT22;39886;47.984;-1.586;2023-09-12T13:18:36;26.60;64.70
53978;DHT22;39886;47.984;-1.586;2023-09-12T13:21:02;26.60;64.10
53978;DHT22;39886;47.984;-1.586;2023-09-12T13:23:28;26.60;64.50
53978;DHT22;39886;47.984;-1.586;2023-09-12T13:25:54;26.60;64.20
53978;DHT22;39886;47.984;-1.586;2023-09-12T13:28:20;26.70;64.50
53978;DHT22;39886;47.984;-1.586;2023-09-12T13:30:46;26.70;64.20
53978;DHT22;39886;47.984;-1.586;2023-09-12T13:33:12;26.70;64.40
53978;DHT22;39886;47.984;-1.586;2023-09-12T13:35:41;26.70;64.10
53978;DHT22;39886;47.984;-1.586;2023-09-12T13:38:07;26.60;64.10
53978;DHT22;39886;47.984;-1.586;2023-09-12T13:40:39;26.70;64.00
53978;DHT22;39886;47.984;-1.586;2023-09-12T13:43:08;26.60;64.00
53978;DHT22;39886;47.984;-1.586;2023-09-12T13:45:35;26.70;63.80
53978;DHT22;39886;47.984;-1.586;2023-09-12T13:48:01;26.70;63.50
53978;DHT22;39886;47.984;-1.586;2023-09-12T13:50:27;26.60;63.10
53978;DHT22;39886;47.984;-1.586;2023-09-12T13:53:01;26.60;63.60
53978;DHT22;39886;47.984;-1.586;2023-09-12T13:55:33;26.50;63.30
53978;DHT22;39886;47.984;-1.586;2023-09-12T13:58:04;26.60;63.60
53978;DHT22;39886;47.984;-1.586;2023-09-12T14:00:31;26.50;62.40
53978;DHT22;39886;47.984;-1.586;2023-09-12T14:02:57;26.40;62.20
53978;DHT22;39886;47.984;-1.586;2023-09-12T14:05:23;26.40;61.80
53978;DHT22;39886;47.984;-1.586;2023-09-12T14:07:50;26.30;62.30
53978;DHT22;39886;47.984;-1.586;2023-09-12T14:10:16;26.40;62.40
53978;DHT22;39886;47.984;-1.586;2023-09-12T14:12:42;26.40;62.30
53978;DHT22;39886;47.984;-1.586;2023-09-12T14:15:13;26.40;62.00
53978;DHT22;39886;47.984;-1.586;2023-09-12T14:17:42;26.30;62.50
53978;DHT22;39886;47.984;-1.586;2023-09-12T14:20:08;26.30;62.50
53978;DHT22;39886;47.984;-1.586;2023-09-12T14:22:35;26.40;62.80
53978;DHT22;39886;47.984;-1.586;2023-09-12T14:25:00;26.30;62.20
53978;DHT22;39886;47.984;-1.586;2023-09-12T14:27:26;26.20;62.50
53978;DHT22;39886;47.984;-1.586;2023-09-12T14:29:52;26.10;62.60
53978;DHT22;39886;47.984;-1.586;2023-09-12T14:32:17;26.10;62.60
53978;DHT22;39886;47.984;-1.586;2023-09-12T14:34:43;26.20;61.70
53978;DHT22;39886;47.984;-1.586;2023-09-12T14:37:11;26.20;62.00
53978;DHT22;39886;47.984;-1.586;2023-09-12T14:39:37;26.30;62.00
53978;DHT22;39886;47.984;-1.586;2023-09-12T14:42:02;26.40;61.40
53978;DHT22;39886;47.984;-1.586;2023-09-12T14:44:34;26.30;61.50
53978;DHT22;39886;47.984;-1.586;2023-09-12T14:47:00;26.30;61.70
53978;DHT22;39886;47.984;-1.586;2023-09-12T14:49:26;26.40;62.20
53978;DHT22;39886;47.984;-1.586;2023-09-12T14:51:51;26.40;62.10
53978;DHT22;39886;47.984;-1.586;2023-09-12T14:54:17;26.40;62.30
53978;DHT22;39886;47.984;-1.586;2023-09-12T14:56:43;26.40;62.60
53978;DHT22;39886;47.984;-1.586;2023-09-12T14:59:08;26.30;63.30
53978;DHT22;39886;47.984;-1.586;2023-09-12T15:01:34;26.30;63.50
53978;DHT22;39886;47.984;-1.586;2023-09-12T15:04:00;26.40;63.10
53978;DHT22;39886;47.984;-1.586;2023-09-12T15:06:27;26.40;64.00
53978;DHT22;39886;47.984;-1.586;2023-09-12T15:08:53;26.50;62.90
53978;DHT22;39886;47.984;-1.586;2023-09-12T15:11:18;26.40;62.60
53978;DHT22;39886;47.984;-1.586;2023-09-12T15:13:44;26.50;62.60
53978;DHT22;39886;47.984;-1.586;2023-09-12T15:16:11;26.50;62.30
53978;DHT22;39886;47.984;-1.586;2023-09-12T15:18:37;26.50;62.40
53978;DHT22;39886;47.984;-1.586;2023-09-12T15:21:06;26.50;63.60
53978;DHT22;39886;47.984;-1.586;2023-09-12T15:23:32;26.50;62.40
53978;DHT22;39886;47.984;-1.586;2023-09-12T15:25:57;26.40;62.80